sensor_id;sensor_type;location;lat;lon;timestamp;P1;durP1;ratioP1;P2;durP2;ratioP2
26634;SDS011;14490;54.208;37.686;2022-08-06T00:02:15;22.08;;;10.65;;
26634;SDS011;14490;54.208;37.686;2022-08-06T00:07:12;25.80;;;11.90;;
26634;SDS011;14490;54.208;37.686;2022-08-06T00:09:40;13.75;;;11.02;;
26634;SDS011;14490;54.208;37.686;2022-08-06T00:12:08;16.35;;;11.35;;
26634;SDS011;14490;54.208;37.686;2022-08-06T00:14:36;16.25;;;11.98;;
26634;SDS011;14490;54.208;37.686;2022-08-06T00:17:03;13.07;;;10.65;;
26634;SDS011;14490;54.208;37.686;2022-08-06T00:19:32;16.42;;;10.82;;
26634;SDS011;14490;54.208;37.686;2022-08-06T00:22:00;17.52;;;11.70;;
26634;SDS011;14490;54.208;37.686;2022-08-06T00:24:28;15.70;;;11.95;;
26634;SDS011;14490;54.208;37.686;2022-08-06T00:26:55;22.63;;;11.63;;
26634;SDS011;14490;54.208;37.686;2022-08-06T00:29:23;16.67;;;11.30;;
26634;SDS011;14490;54.208;37.686;2022-08-06T00:31:50;16.58;;;11.73;;
26634;SDS011;14490;54.208;37.686;2022-08-06T00:34:18;21.75;;;12.73;;
26634;SDS011;14490;54.208;37.686;2022-08-06T00:36:47;16.05;;;11.38;;
26634;SDS011;14490;54.208;37.686;2022-08-06T00:39:15;14.68;;;11.32;;
26634;SDS011;14490;54.208;37.686;2022-08-06T00:41:43;16.45;;;11.65;;
26634;SDS011;14490;54.208;37.686;2022-08-06T00:44:10;16.05;;;12.65;;
26634;SDS011;14490;54.208;37.686;2022-08-06T00:46:38;18.55;;;12.57;;
26634;SDS011;14490;54.208;37.686;2022-08-06T00:49:06;16.25;;;11.38;;
26634;SDS011;14490;54.208;37.686;2022-08-06T00:51:35;19.25;;;13.18;;
26634;SDS011;14490;54.208;37.686;2022-08-06T00:54:04;18.67;;;13.10;;
26634;SDS011;14490;54.208;37.686;2022-08-06T00:56:32;20.45;;;12.30;;
26634;SDS011;14490;54.208;37.686;2022-08-06T00:58:59;22.48;;;12.55;;
26634;SDS011;14490;54.208;37.686;2022-08-06T01:01:27;19.35;;;12.45;;
26634;SDS011;14490;54.208;37.686;2022-08-06T01:03:54;13.32;;;11.93;;
26634;SDS011;14490;54.208;37.686;2022-08-06T01:06:22;26.27;;;14.63;;
26634;SDS011;14490;54.208;37.686;2022-08-06T01:08:49;16.02;;;12.82;;
26634;SDS011;14490;54.208;37.686;2022-08-06T01:11:19;17.25;;;12.93;;
26634;SDS011;14490;54.208;37.686;2022-08-06T01:13:47;19.13;;;13.80;;
26634;SDS011;14490;54.208;37.686;2022-08-06T01:16:15;25.17;;;14.15;;
26634;SDS011;14490;54.208;37.686;2022-08-06T01:18:52;22.23;;;13.25;;
26634;SDS011;14490;54.208;37.686;2022-08-06T01:21:36;20.08;;;13.88;;
26634;SDS011;14490;54.208;37.686;2022-08-06T01:27:42;21.45;;;13.30;;
26634;SDS011;14490;54.208;37.686;2022-08-06T01:30:14;19.98;;;13.52;;
26634;SDS011;14490;54.208;37.686;2022-08-06T01:32:46;20.33;;;12.90;;
26634;SDS011;14490;54.208;37.686;2022-08-06T01:35:21;21.27;;;13.45;;
26634;SDS011;14490;54.208;37.686;2022-08-06T01:37:56;26.60;;;13.52;;
26634;SDS011;14490;54.208;37.686;2022-08-06T01:40:28;19.25;;;13.43;;
26634;SDS011;14490;54.208;37.686;2022-08-06T01:43:02;22.08;;;12.55;;
26634;SDS011;14490;54.208;37.686;2022-08-06T01:45:33;24.52;;;12.43;;
26634;SDS011;14490;54.208;37.686;2022-08-06T01:48:03;17.95;;;11.70;;
26634;SDS011;14490;54.208;37.686;2022-08-06T01:50:36;16.48;;;11.75;;
26634;SDS011;14490;54.208;37.686;2022-08-06T01:53:09;18.08;;;12.13;;
26634;SDS011;14490;54.208;37.686;2022-08-06T01:55:43;28.65;;;13.18;;
26634;SDS011;14490;54.208;37.686;2022-08-06T01:58:17;20.05;;;13.00;;
26634;SDS011;14490;54.208;37.686;2022-08-06T02:00:49;18.15;;;11.88;;
26634;SDS011;14490;54.208;37.686;2022-08-06T02:03:21;21.13;;;11.98;;
26634;SDS011;14490;54.208;37.686;2022-08-06T02:05:55;20.02;;;11.95;;
26634;SDS011;14490;54.208;37.686;2022-08-06T02:08:26;26.33;;;11.88;;
26634;SDS011;14490;54.208;37.686;2022-08-06T02:10:58;12.27;;;10.45;;
26634;SDS011;14490;54.208;37.686;2022-08-06T02:13:31;18.95;;;11.30;;
26634;SDS011;14490;54.208;37.686;2022-08-06T02:16:02;16.35;;;10.98;;
26634;SDS011;14490;54.208;37.686;2022-08-06T02:18:34;14.32;;;9.77;;
26634;SDS011;14490;54.208;37.686;2022-08-06T02:21:06;15.43;;;10.48;;
26634;SDS011;14490;54.208;37.686;2022-08-06T02:23:37;17.55;;;11.73;;
26634;SDS011;14490;54.208;37.686;2022-08-06T02:26:06;12.55;;;10.40;;
26634;SDS011;14490;54.208;37.686;2022-08-06T02:28:37;13.50;;;9.73;;
26634;SDS011;14490;54.208;37.686;2022-08-06T02:31:06;15.63;;;10.27;;
26634;SDS011;14490;54.208;37.686;2022-08-06T02:33:34;17.40;;;10.85;;
26634;SDS011;14490;54.208;37.686;2022-08-06T02:36:04;14.32;;;10.15;;
26634;SDS011;14490;54.208;37.686;2022-08-06T02:38:44;14.82;;;10.43;;
26634;SDS011;14490;54.208;37.686;2022-08-06T02:41:16;12.02;;;9.40;;
26634;SDS011;14490;54.208;37.686;2022-08-06T02:43:50;12.75;;;9.98;;
26634;SDS011;14490;54.208;37.686;2022-08-06T02:46:23;13.20;;;9.27;;
26634;SDS011;14490;54.208;37.686;2022-08-06T02:48:56;18.40;;;10.02;;
26634;SDS011;14490;54.208;37.686;2022-08-06T02:51:31;15.13;;;10.13;;
26634;SDS011;14490;54.208;37.686;2022-08-06T02:54:04;18.35;;;11.35;;
26634;SDS011;14490;54.208;37.686;2022-08-06T02:56:37;12.07;;;10.15;;
26634;SDS011;14490;54.208;37.686;2022-08-06T02:59:13;13.57;;;8.75;;
26634;SDS011;14490;54.208;37.686;2022-08-06T03:01:48;11.68;;;9.13;;
26634;SDS011;14490;54.208;37.686;2022-08-06T03:04:21;15.48;;;9.68;;
26634;SDS011;14490;54.208;37.686;2022-08-06T03:06:52;15.65;;;10.20;;
26634;SDS011;14490;54.208;37.686;2022-08-06T03:09:21;11.85;;;9.75;;
26634;SDS011;14490;54.208;37.686;2022-08-06T03:11:50;11.52;;;9.70;;
26634;SDS011;14490;54.208;37.686;2022-08-06T03:14:20;15.43;;;9.68;;
26634;SDS011;14490;54.208;37.686;2022-08-06T03:16:49;18.92;;;11.73;;
26634;SDS011;14490;54.208;37.686;2022-08-06T03:19:19;25.45;;;10.73;;
26634;SDS011;14490;54.208;37.686;2022-08-06T03:21:48;20.08;;;10.90;;
26634;SDS011;14490;54.208;37.686;2022-08-06T03:24:18;11.98;;;9.80;;
26634;SDS011;14490;54.208;37.686;2022-08-06T03:26:48;15.32;;;10.05;;
26634;SDS011;14490;54.208;37.686;2022-08-06T03:29:18;15.25;;;9.80;;
26634;SDS011;14490;54.208;37.686;2022-08-06T03:31:47;12.02;;;9.65;;
26634;SDS011;14490;54.208;37.686;2022-08-06T03:34:15;13.52;;;9.57;;
26634;SDS011;14490;54.208;37.686;2022-08-06T03:36:43;13.05;;;9.10;;
26634;SDS011;14490;54.208;37.686;2022-08-06T03:39:11;14.68;;;9.50;;
26634;SDS011;14490;54.208;37.686;2022-08-06T03:41:41;16.17;;;10.00;;
26634;SDS011;14490;54.208;37.686;2022-08-06T03:44:10;12.25;;;9.02;;
26634;SDS011;14490;54.208;37.686;2022-08-06T03:46:40;17.13;;;9.95;;
26634;SDS011;14490;54.208;37.686;2022-08-06T03:49:12;13.93;;;9.25;;
26634;SDS011;14490;54.208;37.686;2022-08-06T03:51:46;12.30;;;8.90;;
26634;SDS011;14490;54.208;37.686;2022-08-06T03:54:18;16.98;;;9.30;;
26634;SDS011;14490;54.208;37.686;2022-08-06T03:56:51;17.70;;;9.57;;
26634;SDS011;14490;54.208;37.686;2022-08-06T03:59:22;18.23;;;10.95;;
26634;SDS011;14490;54.208;37.686;2022-08-06T04:01:54;14.38;;;9.23;;
26634;SDS011;14490;54.208;37.686;2022-08-06T04:04:25;17.85;;;10.05;;
26634;SDS011;14490;54.208;37.686;2022-08-06T04:06:53;12.00;;;9.38;;
26634;SDS011;14490;54.208;37.686;2022-08-06T04:09:22;13.43;;;9.68;;
26634;SDS011;14490;54.208;37.686;2022-08-06T04:11:51;14.02;;;10.43;;
26634;SDS011;14490;54.208;37.686;2022-08-06T04:14:21;11.25;;;9.55;;
26634;SDS011;14490;54.208;37.686;2022-08-06T04:16:50;23.50;;;10.30;;
26634;SDS011;14490;54.208;37.686;2022-08-06T04:19:20;14.55;;;9.48;;
26634;SDS011;14490;54.208;37.686;2022-08-06T04:21:50;17.48;;;10.43;;
26634;SDS011;14490;54.208;37.686;2022-08-06T04:24:17;12.05;;;9.35;;
26634;SDS011;14490;54.208;37.686;2022-08-06T04:26:47;17.05;;;9.90;;
26634;SDS011;14490;54.208;37.686;2022-08-06T04:29:20;12.25;;;9.93;;
26634;SDS011;14490;54.208;37.686;2022-08-06T04:31:53;10.80;;;9.30;;
26634;SDS011;14490;54.208;37.686;2022-08-06T04:34:24;18.77;;;10.02;;
26634;SDS011;14490;54.208;37.686;2022-08-06T04:36:54;14.10;;;9.83;;
26634;SDS011;14490;54.208;37.686;2022-08-06T04:39:22;18.95;;;9.50;;
26634;SDS011;14490;54.208;37.686;2022-08-06T04:41:53;10.77;;;9.68;;
26634;SDS011;14490;54.208;37.686;2022-08-06T04:44:21;11.27;;;9.77;;
26634;SDS011;14490;54.208;37.686;2022-08-06T04:46:49;15.50;;;9.82;;
26634;SDS011;14490;54.208;37.686;2022-08-06T04:49:21;14.57;;;9.55;;
26634;SDS011;14490;54.208;37.686;2022-08-06T04:51:50;14.55;;;9.77;;
26634;SDS011;14490;54.208;37.686;2022-08-06T04:54:17;11.52;;;8.45;;
26634;SDS011;14490;54.208;37.686;2022-08-06T04:56:45;9.80;;;8.95;;
26634;SDS011;14490;54.208;37.686;2022-08-06T04:59:13;10.63;;;9.45;;
26634;SDS011;14490;54.208;37.686;2022-08-06T05:01:41;17.45;;;10.23;;
26634;SDS011;14490;54.208;37.686;2022-08-06T05:04:09;17.33;;;10.32;;
26634;SDS011;14490;54.208;37.686;2022-08-06T05:06:39;17.15;;;9.90;;
26634;SDS011;14490;54.208;37.686;2022-08-06T05:09:15;15.05;;;11.13;;
26634;SDS011;14490;54.208;37.686;2022-08-06T05:11:47;22.23;;;10.60;;
26634;SDS011;14490;54.208;37.686;2022-08-06T05:14:24;13.10;;;10.57;;
26634;SDS011;14490;54.208;37.686;2022-08-06T05:17:03;24.20;;;9.93;;
26634;SDS011;14490;54.208;37.686;2022-08-06T05:19:34;19.95;;;9.57;;
26634;SDS011;14490;54.208;37.686;2022-08-06T05:22:09;16.92;;;9.15;;
26634;SDS011;14490;54.208;37.686;2022-08-06T05:24:41;10.35;;;9.13;;
26634;SDS011;14490;54.208;37.686;2022-08-06T05:27:10;12.00;;;8.38;;
26634;SDS011;14490;54.208;37.686;2022-08-06T05:29:39;12.18;;;8.10;;
26634;SDS011;14490;54.208;37.686;2022-08-06T05:32:07;11.93;;;8.57;;
26634;SDS011;14490;54.208;37.686;2022-08-06T05:34:35;14.45;;;8.00;;
26634;SDS011;14490;54.208;37.686;2022-08-06T05:37:03;13.85;;;9.05;;
26634;SDS011;14490;54.208;37.686;2022-08-06T05:39:31;12.13;;;8.52;;
26634;SDS011;14490;54.208;37.686;2022-08-06T05:42:00;13.48;;;9.05;;
26634;SDS011;14490;54.208;37.686;2022-08-06T05:44:27;11.40;;;7.97;;
26634;SDS011;14490;54.208;37.686;2022-08-06T05:46:56;13.52;;;8.93;;
26634;SDS011;14490;54.208;37.686;2022-08-06T05:49:30;20.33;;;9.73;;
26634;SDS011;14490;54.208;37.686;2022-08-06T05:52:07;13.85;;;8.20;;
26634;SDS011;14490;54.208;37.686;2022-08-06T05:54:41;14.75;;;10.00;;
26634;SDS011;14490;54.208;37.686;2022-08-06T05:57:18;13.23;;;10.32;;
26634;SDS011;14490;54.208;37.686;2022-08-06T05:59:54;10.38;;;9.27;;
26634;SDS011;14490;54.208;37.686;2022-08-06T06:02:29;13.93;;;8.45;;
26634;SDS011;14490;54.208;37.686;2022-08-06T06:04:59;13.25;;;9.30;;
26634;SDS011;14490;54.208;37.686;2022-08-06T06:07:27;12.60;;;9.48;;
26634;SDS011;14490;54.208;37.686;2022-08-06T06:09:56;15.40;;;9.20;;
26634;SDS011;14490;54.208;37.686;2022-08-06T06:12:25;9.13;;;7.40;;
26634;SDS011;14490;54.208;37.686;2022-08-06T06:14:54;15.30;;;8.82;;
26634;SDS011;14490;54.208;37.686;2022-08-06T06:17:25;15.57;;;9.48;;
26634;SDS011;14490;54.208;37.686;2022-08-06T06:20:07;12.23;;;9.15;;
26634;SDS011;14490;54.208;37.686;2022-08-06T06:22:43;12.70;;;9.10;;
26634;SDS011;14490;54.208;37.686;2022-08-06T06:25:20;13.18;;;10.20;;
26634;SDS011;14490;54.208;37.686;2022-08-06T06:27:55;17.10;;;8.73;;
26634;SDS011;14490;54.208;37.686;2022-08-06T06:30:33;9.63;;;8.68;;
26634;SDS011;14490;54.208;37.686;2022-08-06T06:33:10;10.63;;;8.48;;
26634;SDS011;14490;54.208;37.686;2022-08-06T06:35:47;17.48;;;10.68;;
26634;SDS011;14490;54.208;37.686;2022-08-06T06:38:25;12.85;;;9.60;;
26634;SDS011;14490;54.208;37.686;2022-08-06T06:41:03;11.75;;;9.30;;
26634;SDS011;14490;54.208;37.686;2022-08-06T06:43:39;12.38;;;8.98;;
26634;SDS011;14490;54.208;37.686;2022-08-06T06:46:16;14.95;;;9.13;;
26634;SDS011;14490;54.208;37.686;2022-08-06T06:48:51;8.55;;;7.68;;
26634;SDS011;14490;54.208;37.686;2022-08-06T06:51:24;21.08;;;10.10;;
26634;SDS011;14490;54.208;37.686;2022-08-06T06:53:58;15.52;;;10.18;;
26634;SDS011;14490;54.208;37.686;2022-08-06T06:56:26;14.50;;;10.25;;
26634;SDS011;14490;54.208;37.686;2022-08-06T06:59:06;13.93;;;8.57;;
26634;SDS011;14490;54.208;37.686;2022-08-06T07:01:40;13.48;;;8.52;;
26634;SDS011;14490;54.208;37.686;2022-08-06T07:04:17;9.45;;;7.60;;
26634;SDS011;14490;54.208;37.686;2022-08-06T07:06:46;18.88;;;8.77;;
26634;SDS011;14490;54.208;37.686;2022-08-06T07:09:18;13.55;;;8.93;;
26634;SDS011;14490;54.208;37.686;2022-08-06T07:14:18;20.65;;;8.73;;
26634;SDS011;14490;54.208;37.686;2022-08-06T07:16:54;23.45;;;9.32;;
26634;SDS011;14490;54.208;37.686;2022-08-06T07:19:24;8.35;;;6.50;;
26634;SDS011;14490;54.208;37.686;2022-08-06T07:21:53;16.65;;;8.43;;
26634;SDS011;14490;54.208;37.686;2022-08-06T07:24:23;18.13;;;9.65;;
26634;SDS011;14490;54.208;37.686;2022-08-06T07:26:56;16.52;;;9.05;;
26634;SDS011;14490;54.208;37.686;2022-08-06T07:29:26;22.13;;;7.82;;
26634;SDS011;14490;54.208;37.686;2022-08-06T07:31:55;21.40;;;9.23;;
26634;SDS011;14490;54.208;37.686;2022-08-06T07:34:24;17.83;;;10.20;;
26634;SDS011;14490;54.208;37.686;2022-08-06T07:36:54;18.08;;;9.88;;
26634;SDS011;14490;54.208;37.686;2022-08-06T07:39:24;20.13;;;9.82;;
26634;SDS011;14490;54.208;37.686;2022-08-06T07:41:59;25.52;;;9.57;;
26634;SDS011;14490;54.208;37.686;2022-08-06T07:44:34;23.20;;;9.82;;
26634;SDS011;14490;54.208;37.686;2022-08-06T07:47:04;18.27;;;10.40;;
26634;SDS011;14490;54.208;37.686;2022-08-06T07:49:36;18.27;;;9.35;;
26634;SDS011;14490;54.208;37.686;2022-08-06T07:52:09;6.30;;;5.70;;
26634;SDS011;14490;54.208;37.686;2022-08-06T07:54:40;18.45;;;9.40;;
26634;SDS011;14490;54.208;37.686;2022-08-06T07:57:09;17.20;;;8.63;;
26634;SDS011;14490;54.208;37.686;2022-08-06T07:59:39;18.48;;;9.80;;
26634;SDS011;14490;54.208;37.686;2022-08-06T08:02:08;25.95;;;9.02;;
26634;SDS011;14490;54.208;37.686;2022-08-06T08:04:38;20.15;;;8.82;;
26634;SDS011;14490;54.208;37.686;2022-08-06T08:07:23;22.85;;;8.77;;
26634;SDS011;14490;54.208;37.686;2022-08-06T08:09:53;19.52;;;7.95;;
26634;SDS011;14490;54.208;37.686;2022-08-06T08:12:22;22.52;;;8.38;;
26634;SDS011;14490;54.208;37.686;2022-08-06T08:14:59;20.52;;;9.13;;
26634;SDS011;14490;54.208;37.686;2022-08-06T08:17:33;12.15;;;6.80;;
26634;SDS011;14490;54.208;37.686;2022-08-06T08:20:04;11.25;;;7.00;;
26634;SDS011;14490;54.208;37.686;2022-08-06T08:22:36;11.73;;;6.45;;
26634;SDS011;14490;54.208;37.686;2022-08-06T08:25:08;15.70;;;6.18;;
26634;SDS011;14490;54.208;37.686;2022-08-06T08:27:36;12.35;;;5.47;;
26634;SDS011;14490;54.208;37.686;2022-08-06T08:30:09;9.07;;;6.75;;
26634;SDS011;14490;54.208;37.686;2022-08-06T08:32:42;10.10;;;6.45;;
26634;SDS011;14490;54.208;37.686;2022-08-06T08:35:10;14.25;;;6.70;;
26634;SDS011;14490;54.208;37.686;2022-08-06T08:37:40;8.00;;;5.95;;
26634;SDS011;14490;54.208;37.686;2022-08-06T08:40:09;9.70;;;5.63;;
26634;SDS011;14490;54.208;37.686;2022-08-06T08:42:40;11.23;;;6.93;;
26634;SDS011;14490;54.208;37.686;2022-08-06T08:45:20;7.13;;;6.43;;
26634;SDS011;14490;54.208;37.686;2022-08-06T08:47:49;6.28;;;5.22;;
26634;SDS011;14490;54.208;37.686;2022-08-06T08:50:19;13.25;;;6.57;;
26634;SDS011;14490;54.208;37.686;2022-08-06T08:52:48;9.10;;;5.90;;
26634;SDS011;14490;54.208;37.686;2022-08-06T08:55:20;10.65;;;6.43;;
26634;SDS011;14490;54.208;37.686;2022-08-06T08:57:51;6.28;;;5.68;;
26634;SDS011;14490;54.208;37.686;2022-08-06T09:00:22;7.40;;;5.97;;
26634;SDS011;14490;54.208;37.686;2022-08-06T09:02:50;7.65;;;6.13;;
26634;SDS011;14490;54.208;37.686;2022-08-06T09:05:19;7.50;;;6.20;;
26634;SDS011;14490;54.208;37.686;2022-08-06T09:07:48;12.80;;;5.90;;
26634;SDS011;14490;54.208;37.686;2022-08-06T09:10:17;14.13;;;6.10;;
26634;SDS011;14490;54.208;37.686;2022-08-06T09:12:44;14.77;;;6.38;;
26634;SDS011;14490;54.208;37.686;2022-08-06T09:15:14;9.70;;;6.35;;
26634;SDS011;14490;54.208;37.686;2022-08-06T09:17:45;8.00;;;6.20;;
26634;SDS011;14490;54.208;37.686;2022-08-06T09:20:13;9.55;;;5.80;;
26634;SDS011;14490;54.208;37.686;2022-08-06T09:22:41;11.15;;;5.70;;
26634;SDS011;14490;54.208;37.686;2022-08-06T09:30:38;9.40;;;5.40;;
26634;SDS011;14490;54.208;37.686;2022-08-06T09:33:16;13.35;;;5.22;;
26634;SDS011;14490;54.208;37.686;2022-08-06T09:35:45;8.73;;;5.15;;
26634;SDS011;14490;54.208;37.686;2022-08-06T09:38:25;8.70;;;5.90;;
26634;SDS011;14490;54.208;37.686;2022-08-06T09:41:04;14.77;;;5.65;;
26634;SDS011;14490;54.208;37.686;2022-08-06T09:43:35;7.85;;;5.45;;
26634;SDS011;14490;54.208;37.686;2022-08-06T09:46:04;15.45;;;6.57;;
26634;SDS011;14490;54.208;37.686;2022-08-06T09:48:35;9.50;;;6.53;;
26634;SDS011;14490;54.208;37.686;2022-08-06T09:51:03;8.90;;;6.43;;
26634;SDS011;14490;54.208;37.686;2022-08-06T09:53:31;9.90;;;6.03;;
26634;SDS011;14490;54.208;37.686;2022-08-06T09:55:59;6.88;;;5.35;;
26634;SDS011;14490;54.208;37.686;2022-08-06T09:58:28;7.05;;;6.05;;
26634;SDS011;14490;54.208;37.686;2022-08-06T10:01:10;10.10;;;5.82;;
26634;SDS011;14490;54.208;37.686;2022-08-06T10:03:41;8.38;;;5.78;;
26634;SDS011;14490;54.208;37.686;2022-08-06T10:06:09;10.38;;;7.15;;
26634;SDS011;14490;54.208;37.686;2022-08-06T10:08:39;14.57;;;7.43;;
26634;SDS011;14490;54.208;37.686;2022-08-06T10:11:08;10.52;;;6.60;;
26634;SDS011;14490;54.208;37.686;2022-08-06T10:13:36;7.80;;;6.95;;
26634;SDS011;14490;54.208;37.686;2022-08-06T10:16:14;13.05;;;7.05;;
26634;SDS011;14490;54.208;37.686;2022-08-06T10:18:46;11.48;;;6.35;;
26634;SDS011;14490;54.208;37.686;2022-08-06T10:21:15;13.77;;;6.18;;
26634;SDS011;14490;54.208;37.686;2022-08-06T10:23:49;10.90;;;6.15;;
26634;SDS011;14490;54.208;37.686;2022-08-06T10:26:21;7.18;;;6.47;;
26634;SDS011;14490;54.208;37.686;2022-08-06T10:28:52;11.02;;;6.32;;
26634;SDS011;14490;54.208;37.686;2022-08-06T10:31:20;8.10;;;6.45;;
26634;SDS011;14490;54.208;37.686;2022-08-06T10:33:53;10.38;;;6.32;;
26634;SDS011;14490;54.208;37.686;2022-08-06T10:36:25;8.70;;;6.10;;
26634;SDS011;14490;54.208;37.686;2022-08-06T10:38:58;12.10;;;5.65;;
26634;SDS011;14490;54.208;37.686;2022-08-06T10:41:26;7.30;;;5.55;;
26634;SDS011;14490;54.208;37.686;2022-08-06T10:43:55;5.75;;;4.50;;
26634;SDS011;14490;54.208;37.686;2022-08-06T10:46:24;5.10;;;3.97;;
26634;SDS011;14490;54.208;37.686;2022-08-06T10:48:53;8.23;;;4.45;;
26634;SDS011;14490;54.208;37.686;2022-08-06T10:51:22;12.07;;;5.05;;
26634;SDS011;14490;54.208;37.686;2022-08-06T10:53:51;7.13;;;4.68;;
26634;SDS011;14490;54.208;37.686;2022-08-06T10:56:19;6.07;;;4.45;;
26634;SDS011;14490;54.208;37.686;2022-08-06T10:58:47;8.85;;;4.60;;
26634;SDS011;14490;54.208;37.686;2022-08-06T11:01:18;4.75;;;4.20;;
26634;SDS011;14490;54.208;37.686;2022-08-06T11:04:02;8.02;;;4.90;;
26634;SDS011;14490;54.208;37.686;2022-08-06T11:10:09;13.75;;;4.53;;
26634;SDS011;14490;54.208;37.686;2022-08-06T11:12:55;4.90;;;4.43;;
26634;SDS011;14490;54.208;37.686;2022-08-06T11:15:33;7.07;;;4.47;;
26634;SDS011;14490;54.208;37.686;2022-08-06T11:18:03;6.57;;;4.05;;
26634;SDS011;14490;54.208;37.686;2022-08-06T11:20:37;14.07;;;4.80;;
26634;SDS011;14490;54.208;37.686;2022-08-06T11:23:21;5.97;;;4.22;;
26634;SDS011;14490;54.208;37.686;2022-08-06T11:25:53;6.70;;;4.18;;
26634;SDS011;14490;54.208;37.686;2022-08-06T11:31:30;7.38;;;3.35;;
26634;SDS011;14490;54.208;37.686;2022-08-06T11:34:04;3.30;;;3.00;;
26634;SDS011;14490;54.208;37.686;2022-08-06T11:39:31;3.53;;;3.00;;
26634;SDS011;14490;54.208;37.686;2022-08-06T11:42:42;9.52;;;4.03;;
26634;SDS011;14490;54.208;37.686;2022-08-06T11:45:10;5.10;;;4.63;;
26634;SDS011;14490;54.208;37.686;2022-08-06T11:47:51;7.60;;;4.65;;
26634;SDS011;14490;54.208;37.686;2022-08-06T11:50:31;6.28;;;4.07;;
26634;SDS011;14490;54.208;37.686;2022-08-06T11:53:01;8.18;;;4.45;;
26634;SDS011;14490;54.208;37.686;2022-08-06T11:55:29;8.73;;;4.47;;
26634;SDS011;14490;54.208;37.686;2022-08-06T12:03:37;9.48;;;3.90;;
26634;SDS011;14490;54.208;37.686;2022-08-06T12:06:19;6.05;;;4.50;;
26634;SDS011;14490;54.208;37.686;2022-08-06T12:11:37;5.80;;;3.95;;
26634;SDS011;14490;54.208;37.686;2022-08-06T12:14:05;4.95;;;4.45;;
26634;SDS011;14490;54.208;37.686;2022-08-06T12:17:10;19.88;;;7.60;;
26634;SDS011;14490;54.208;37.686;2022-08-06T12:19:42;18.40;;;5.82;;
26634;SDS011;14490;54.208;37.686;2022-08-06T12:22:11;14.23;;;5.18;;
26634;SDS011;14490;54.208;37.686;2022-08-06T12:24:42;13.40;;;7.95;;
26634;SDS011;14490;54.208;37.686;2022-08-06T12:27:11;11.00;;;5.15;;
26634;SDS011;14490;54.208;37.686;2022-08-06T12:29:40;5.65;;;4.65;;
26634;SDS011;14490;54.208;37.686;2022-08-06T12:32:19;5.72;;;4.70;;
26634;SDS011;14490;54.208;37.686;2022-08-06T12:34:49;4.18;;;3.78;;
26634;SDS011;14490;54.208;37.686;2022-08-06T12:37:18;6.30;;;3.70;;
26634;SDS011;14490;54.208;37.686;2022-08-06T12:39:48;117.32;;;11.13;;
26634;SDS011;14490;54.208;37.686;2022-08-06T12:42:34;20.52;;;5.43;;
26634;SDS011;14490;54.208;37.686;2022-08-06T12:45:03;8.35;;;5.00;;
26634;SDS011;14490;54.208;37.686;2022-08-06T12:47:36;11.65;;;4.90;;
26634;SDS011;14490;54.208;37.686;2022-08-06T12:50:15;15.80;;;5.20;;
26634;SDS011;14490;54.208;37.686;2022-08-06T12:52:44;9.17;;;4.00;;
26634;SDS011;14490;54.208;37.686;2022-08-06T12:55:29;7.15;;;3.60;;
26634;SDS011;14490;54.208;37.686;2022-08-06T12:57:58;7.53;;;3.55;;
26634;SDS011;14490;54.208;37.686;2022-08-06T13:00:28;14.32;;;3.88;;
26634;SDS011;14490;54.208;37.686;2022-08-06T13:02:57;9.70;;;3.75;;
26634;SDS011;14490;54.208;37.686;2022-08-06T13:05:26;9.73;;;3.22;;
26634;SDS011;14490;54.208;37.686;2022-08-06T13:07:54;5.82;;;2.90;;
26634;SDS011;14490;54.208;37.686;2022-08-06T13:10:23;4.57;;;3.70;;
26634;SDS011;14490;54.208;37.686;2022-08-06T13:12:55;6.80;;;2.97;;
26634;SDS011;14490;54.208;37.686;2022-08-06T13:15:26;4.63;;;3.08;;
26634;SDS011;14490;54.208;37.686;2022-08-06T13:18:02;4.38;;;2.72;;
26634;SDS011;14490;54.208;37.686;2022-08-06T13:20:36;4.00;;;2.95;;
26634;SDS011;14490;54.208;37.686;2022-08-06T13:23:06;3.78;;;2.70;;
26634;SDS011;14490;54.208;37.686;2022-08-06T13:25:41;3.67;;;3.00;;
26634;SDS011;14490;54.208;37.686;2022-08-06T13:28:12;5.18;;;2.47;;
26634;SDS011;14490;54.208;37.686;2022-08-06T13:30:42;7.22;;;2.70;;
26634;SDS011;14490;54.208;37.686;2022-08-06T13:33:11;3.95;;;2.85;;
26634;SDS011;14490;54.208;37.686;2022-08-06T13:35:40;3.47;;;3.00;;
26634;SDS011;14490;54.208;37.686;2022-08-06T13:38:08;4.22;;;2.90;;
26634;SDS011;14490;54.208;37.686;2022-08-06T13:40:38;14.13;;;3.03;;
26634;SDS011;14490;54.208;37.686;2022-08-06T13:43:12;9.90;;;2.72;;
26634;SDS011;14490;54.208;37.686;2022-08-06T13:45:40;4.03;;;2.78;;
26634;SDS011;14490;54.208;37.686;2022-08-06T13:48:09;5.10;;;3.17;;
26634;SDS011;14490;54.208;37.686;2022-08-06T13:50:38;11.60;;;3.17;;
26634;SDS011;14490;54.208;37.686;2022-08-06T13:53:08;6.30;;;3.57;;
26634;SDS011;14490;54.208;37.686;2022-08-06T13:55:38;11.35;;;3.22;;
26634;SDS011;14490;54.208;37.686;2022-08-06T13:58:09;10.88;;;3.28;;
26634;SDS011;14490;54.208;37.686;2022-08-06T14:00:38;14.43;;;3.80;;
26634;SDS011;14490;54.208;37.686;2022-08-06T14:03:07;9.07;;;4.20;;
26634;SDS011;14490;54.208;37.686;2022-08-06T14:05:35;11.43;;;5.10;;
26634;SDS011;14490;54.208;37.686;2022-08-06T14:08:03;6.90;;;4.45;;
26634;SDS011;14490;54.208;37.686;2022-08-06T14:10:31;5.70;;;3.97;;
26634;SDS011;14490;54.208;37.686;2022-08-06T14:12:58;6.45;;;3.97;;
26634;SDS011;14490;54.208;37.686;2022-08-06T14:15:47;5.78;;;3.90;;
26634;SDS011;14490;54.208;37.686;2022-08-06T14:18:19;4.10;;;3.70;;
26634;SDS011;14490;54.208;37.686;2022-08-06T14:20:48;8.25;;;3.80;;
26634;SDS011;14490;54.208;37.686;2022-08-06T14:23:16;4.30;;;3.67;;
26634;SDS011;14490;54.208;37.686;2022-08-06T14:25:44;6.15;;;4.30;;
26634;SDS011;14490;54.208;37.686;2022-08-06T14:28:12;9.65;;;4.18;;
26634;SDS011;14490;54.208;37.686;2022-08-06T14:30:42;6.50;;;3.60;;
26634;SDS011;14490;54.208;37.686;2022-08-06T14:33:11;6.80;;;4.28;;
26634;SDS011;14490;54.208;37.686;2022-08-06T14:35:39;5.88;;;4.43;;
26634;SDS011;14490;54.208;37.686;2022-08-06T14:38:07;13.80;;;5.47;;
26634;SDS011;14490;54.208;37.686;2022-08-06T14:40:37;11.02;;;4.88;;
26634;SDS011;14490;54.208;37.686;2022-08-06T14:43:22;11.77;;;5.68;;
26634;SDS011;14490;54.208;37.686;2022-08-06T14:46:07;8.60;;;4.57;;
26634;SDS011;14490;54.208;37.686;2022-08-06T14:48:37;7.65;;;4.88;;
26634;SDS011;14490;54.208;37.686;2022-08-06T14:51:05;6.57;;;5.10;;
26634;SDS011;14490;54.208;37.686;2022-08-06T14:53:32;10.80;;;5.07;;
26634;SDS011;14490;54.208;37.686;2022-08-06T14:56:00;11.50;;;4.57;;
26634;SDS011;14490;54.208;37.686;2022-08-06T14:58:28;6.20;;;4.80;;
26634;SDS011;14490;54.208;37.686;2022-08-06T15:00:56;10.00;;;4.85;;
26634;SDS011;14490;54.208;37.686;2022-08-06T15:03:23;6.57;;;4.40;;
26634;SDS011;14490;54.208;37.686;2022-08-06T15:05:54;9.20;;;4.90;;
26634;SDS011;14490;54.208;37.686;2022-08-06T15:08:22;10.52;;;4.65;;
26634;SDS011;14490;54.208;37.686;2022-08-06T15:10:50;11.82;;;4.55;;
26634;SDS011;14490;54.208;37.686;2022-08-06T15:13:18;7.88;;;4.28;;
26634;SDS011;14490;54.208;37.686;2022-08-06T15:15:46;8.82;;;4.75;;
26634;SDS011;14490;54.208;37.686;2022-08-06T15:18:14;12.27;;;5.43;;
26634;SDS011;14490;54.208;37.686;2022-08-06T15:20:42;9.45;;;5.82;;